Madison, MN (56256)

10:37 PM CST on December 03, 2016 (GMT -0600)
Madison-Lac Qui Parle County | | Change Station

Elev 1083 ft 44.98 °N, 96.18 °W | Updated 4 minutes ago

Overcast
Overcast
37 °F
Feels Like 28 °F
N
15
Wind Variable Wind from SSE
Gusts 20 mph

Today
High -- | Low -- °F
--% Chance of Precip.
Yesterday
High -- | Low -- °F
Precip. -- in
Pressure 29.99 in
Visibility 5.0 miles
Clouds Overcast 1400 ft
Windchill 28 °F
Dew Point 36 °F
Humidity 93%
Rainfall 0.00 in
Snow Depth Not available.
7:45 AM 4:43 PM
Waxing Crescent, 19% visible
METAR KDXX 040433Z AUTO 16013G17KT 5SM BR OVC014 03/02 A2999 RMK AO2
Pressure 29.99 in
Visibility 5.0 miles
Clouds Overcast 1400 ft
Windchill 28 °F
Dew Point 36 °F
Humidity 93%
Rainfall 0.00 in
Snow Depth Not available.
7:45 AM 4:43 PM
Waxing Crescent, 19% visible
METAR KDXX 040433Z AUTO 16013G17KT 5SM BR OVC014 03/02 A2999 RMK AO2

10-Day Weather Forecast

Almanac

Astronomy

Dec. 03, 2016 Rise Set
Actual Time
Civil Twilight
Nautical Twilight
Astronomical Twilight
Moon
Length of Visible Light
Length of Day
Tomorrow will be .
, % of the Moon is Illuminated

Today's Extremes

State Highs State Lows

Community

WunderPhotos

Upload Photos

1,955,573 photos uploaded!

WunderBlog® & News

Nearby

Air Quality

  Air Quality AQ Index Pollutant
Not available.

Snow Depth

Station Depth Elevation

Earthquake Activity

City Distance Mag. Time & Date
Minimum magnitude displayed is 2.5.

Coastal Water Temperatures

Place Temperature

Stations

Nearby Weather Stations

Station Location Temp. Windchill Dew Point Humidity Wind Precip. Elev Updated Type
                   

Watches & Warnings

There are currently no watches in effect.